Time;durP1;ratioP1;P1;durP2;ratioP2;P2;SDS_P1;SDS_P2;PMS_P1;PMS_P2;Temp;Humidity;BMP_temperature;BMP_pressure;BME280_temperature;BME280_humidity;BME280_pressure;Samples;Min_cycle;Max_cycle;Signal;HPM_P1;HPM_P2
2023/01/29 00:01:16;;;;;;;10.23;8.45;;;;;;;;;;4978443;28;20437;-78
2023/01/29 00:03:42;;;;;;;10.88;9.27;;;;;;;;;;4995751;28;20038;-78
2023/01/29 00:06:08;;;;;;;11.35;8.90;;;;;;;;;;4978015;28;20556;-78
2023/01/29 00:08:34;;;;;;;11.82;9.85;;;;;;;;;;4995841;28;20025;-78
2023/01/29 00:11:01;;;;;;;13.75;11.93;;;;;;;;;;4995797;28;20034;-77
2023/01/29 00:13:28;;;;;;;12.95;11.15;;;;;;;;;;4995567;28;20058;-77
2023/01/29 00:15:54;;;;;;;12.57;10.52;;;;;;;;;;4995324;28;20100;-78
2023/01/29 00:18:20;;;;;;;12.82;10.65;;;;;;;;;;4977782;28;20070;-77
2023/01/29 00:20:45;;;;;;;13.68;10.15;;;;;;;;;;4995841;28;20058;-77
2023/01/29 00:23:10;;;;;;;17.52;14.20;;;;;;;;;;4977990;28;20042;-77
2023/01/29 00:25:36;;;;;;;15.30;13.68;;;;;;;;;;4994954;28;20129;-77
2023/01/29 00:28:02;;;;;;;12.18;9.85;;;;;;;;;;4995590;28;20031;-77
2023/01/29 00:48:18;;;;;;;13.95;12.60;;;;;;;;;;5323297;23;20051;-78
2023/01/29 00:53:42;;;;;;;14.10;12.77;;;;;;;;;;4854254;23;20389;-81
2023/01/29 00:56:08;;;;;;;12.60;11.32;;;;;;;;;;4936907;29;20114;-81
2023/01/29 00:58:33;;;;;;;9.63;8.65;;;;;;;;;;4915378;29;20043;-81
2023/01/29 01:01:05;;;;;;;8.63;7.65;;;;;;;;;;4928087;29;20032;-81
2023/01/29 01:03:33;;;;;;;7.18;6.47;;;;;;;;;;4909806;29;20036;-81
2023/01/29 01:06:05;;;;;;;7.20;6.50;;;;;;;;;;4888489;29;20032;-77
2023/01/29 01:11:14;;;;;;;7.78;6.45;;;;;;;;;;4919339;29;20468;-77
2023/01/29 01:13:42;;;;;;;7.63;6.45;;;;;;;;;;4885098;29;20056;-77
2023/01/29 01:16:11;;;;;;;7.28;6.55;;;;;;;;;;4900567;29;20032;-77
2023/01/29 01:18:37;;;;;;;7.38;6.45;;;;;;;;;;4917785;29;20024;-73
2023/01/29 01:21:03;;;;;;;6.65;6.05;;;;;;;;;;4900538;29;20047;-72
2023/01/29 01:23:28;;;;;;;8.75;6.80;;;;;;;;;;4900926;29;20028;-72
2023/01/29 01:25:56;;;;;;;8.43;6.43;;;;;;;;;;4917284;29;20490;-72
2023/01/29 01:28:21;;;;;;;7.20;6.43;;;;;;;;;;4900370;29;20070;-73
2023/01/29 01:30:48;;;;;;;9.30;8.32;;;;;;;;;;4901062;29;20071;-72
2023/01/29 01:33:13;;;;;;;10.32;9.27;;;;;;;;;;4900323;29;20031;-72
2023/01/29 01:35:39;;;;;;;7.03;6.43;;;;;;;;;;4917215;29;20032;-72
2023/01/29 01:38:06;;;;;;;7.50;6.32;;;;;;;;;;4917907;29;20032;-72
2023/01/29 01:40:31;;;;;;;6.90;6.30;;;;;;;;;;4917733;29;20071;-72
2023/01/29 01:42:58;;;;;;;6.45;5.80;;;;;;;;;;4900348;29;20055;-74
2023/01/29 01:45:26;;;;;;;7.93;6.30;;;;;;;;;;4917430;29;20042;-71
2023/01/29 01:48:07;;;;;;;8.18;6.88;;;;;;;;;;4900340;29;20080;-73
2023/01/29 01:50:35;;;;;;;7.65;6.22;;;;;;;;;;4900538;29;20477;-73
2023/01/29 01:53:13;;;;;;;7.00;6.30;;;;;;;;;;4900411;29;20136;-73
2023/01/29 01:55:44;;;;;;;8.13;5.93;;;;;;;;;;4885580;29;20495;-72
2023/01/29 01:58:11;;;;;;;6.75;6.05;;;;;;;;;;4900421;29;20387;-72
2023/01/29 02:00:38;;;;;;;10.95;8.93;;;;;;;;;;4884605;29;20040;-72
2023/01/29 02:11:50;;;;;;;8.88;7.97;;;;;;;;;;4864746;29;20040;-72
2023/01/29 02:14:15;;;;;;;6.60;5.93;;;;;;;;;;4903930;29;20043;-73
2023/01/29 02:16:47;;;;;;;6.80;6.10;;;;;;;;;;4920744;29;20036;-75
2023/01/29 02:19:29;;;;;;;7.30;6.20;;;;;;;;;;4920746;29;20036;-72
2023/01/29 02:21:54;;;;;;;;;;;;;;;;;;4921014;29;20564;-72
2023/01/29 02:24:54;;;;;;;8.40;6.13;;;;;;;;;;4904087;29;19959;-71
2023/01/29 02:27:24;;;;;;;5.00;4.60;;;;;;;;;;4857232;29;20299;-77
2023/01/29 02:30:01;;;;;;;6.70;5.33;;;;;;;;;;4920267;29;20047;-76
2023/01/29 02:32:27;;;;;;;5.20;4.70;;;;;;;;;;4920251;29;20040;-77
2023/01/29 02:37:59;;;;;;;5.10;4.55;;;;;;;;;;4903194;29;20084;-76
2023/01/29 02:40:30;;;;;;;4.40;4.00;;;;;;;;;;4920367;29;20024;-77
2023/01/29 02:43:06;;;;;;;4.30;3.90;;;;;;;;;;4920336;29;20076;-76
2023/01/29 02:45:38;;;;;;;4.30;3.90;;;;;;;;;;4909344;23;20493;-76
2023/01/29 02:48:04;;;;;;;6.22;4.75;;;;;;;;;;4884466;29;20033;-76
2023/01/29 02:50:35;;;;;;;5.28;4.30;;;;;;;;;;4900767;29;20084;-76
2023/01/29 02:53:05;;;;;;;4.43;3.97;;;;;;;;;;4901045;29;20033;-78
2023/01/29 02:55:49;;;;;;;3.83;3.35;;;;;;;;;;4900883;29;20119;-77
2023/01/29 02:58:18;;;;;;;4.57;4.18;;;;;;;;;;4884039;29;20458;-77
2023/01/29 03:00:45;;;;;;;3.85;3.55;;;;;;;;;;4899508;29;20029;-77
2023/01/29 03:03:18;;;;;;;3.65;3.35;;;;;;;;;;4901040;29;20035;-77
2023/01/29 03:05:49;;;;;;;4.10;3.80;;;;;;;;;;4901116;29;20036;-77
2023/01/29 03:08:17;;;;;;;4.00;3.75;;;;;;;;;;4899119;29;20560;-76
2023/01/29 03:10:47;;;;;;;4.35;3.95;;;;;;;;;;4913996;23;20068;-74
2023/01/29 03:13:21;;;;;;;4.60;4.20;;;;;;;;;;4744570;23;20147;-74
2023/01/29 03:16:00;;;;;;;4.63;3.97;;;;;;;;;;4902591;29;20542;-74
2023/01/29 03:18:42;;;;;;;7.80;4.60;;;;;;;;;;4888409;29;20127;-74
2023/01/29 03:32:18;;;;;;;4.63;4.22;;;;;;;;;;4899136;29;19911;-78
2023/01/29 03:34:46;;;;;;;4.80;4.40;;;;;;;;;;4899217;29;20020;-78
2023/01/29 03:37:21;;;;;;;4.90;4.50;;;;;;;;;;4899262;29;20101;-77
2023/01/29 03:39:46;;;;;;;4.78;4.30;;;;;;;;;;4899180;29;20032;-77
2023/01/29 03:42:26;;;;;;;4.18;3.88;;;;;;;;;;4883701;29;20541;-78
2023/01/29 03:44:54;;;;;;;4.28;3.88;;;;;;;;;;4898928;29;20063;-77
2023/01/29 03:47:28;;;;;;;4.88;4.30;;;;;;;;;;4898812;29;20055;-77
2023/01/29 03:49:57;;;;;;;4.55;3.78;;;;;;;;;;4899108;29;20477;-78
2023/01/29 03:52:24;;;;;;;3.95;3.63;;;;;;;;;;4900075;29;20120;-78
2023/01/29 03:54:53;;;;;;;;;;;;;;;;;;4884171;29;20104;-77
2023/01/29 03:57:26;;;;;;;3.78;3.47;;;;;;;;;;4883504;29;19911;-77
2023/01/29 03:59:58;;;;;;;4.30;3.90;;;;;;;;;;4883161;29;20079;-77
2023/01/29 04:02:54;;;;;;;4.07;3.67;;;;;;;;;;4899956;29;20071;-76
2023/01/29 04:05:20;;;;;;;3.80;3.50;;;;;;;;;;4898484;29;20182;-76
2023/01/29 04:08:06;;;;;;;4.10;3.80;;;;;;;;;;4898277;29;20041;-76
2023/01/29 04:10:34;;;;;;;4.10;3.70;;;;;;;;;;4897974;29;20060;-76
2023/01/29 04:13:09;;;;;;;4.22;3.85;;;;;;;;;;4898486;29;20029;-76
2023/01/29 04:15:38;;;;;;;3.20;2.90;;;;;;;;;;4898453;29;20400;-75
2023/01/29 04:18:04;;;;;;;4.50;3.25;;;;;;;;;;4898381;29;20118;-77
2023/01/29 04:20:44;;;;;;;3.30;3.10;;;;;;;;;;4884492;29;20071;-77
2023/01/29 04:23:36;;;;;;;3.08;2.85;;;;;;;;;;4882593;29;20475;-76
2023/01/29 04:26:12;;;;;;;3.08;2.88;;;;;;;;;;4901319;29;20043;-77
2023/01/29 04:28:52;;;;;;;3.42;3.13;;;;;;;;;;4901647;29;20039;-75
2023/01/29 04:31:22;;;;;;;5.85;3.40;;;;;;;;;;4885421;29;20507;-76
2023/01/29 04:33:59;;;;;;;3.53;3.22;;;;;;;;;;4901361;29;20067;-76
2023/01/29 04:36:51;;;;;;;2.88;2.67;;;;;;;;;;4901867;29;20043;-76
2023/01/29 04:39:24;;;;;;;3.22;2.92;;;;;;;;;;4890073;29;20052;-81
2023/01/29 04:41:50;;;;;;;3.30;3.00;;;;;;;;;;4903123;29;20040;-80
2023/01/29 04:44:25;;;;;;;3.35;3.05;;;;;;;;;;4918236;29;20032;-78
2023/01/29 04:46:53;;;;;;;3.47;3.17;;;;;;;;;;4917639;29;20064;-78
2023/01/29 04:49:37;;;;;;;3.58;3.00;;;;;;;;;;4885737;29;20028;-80
2023/01/29 04:52:15;;;;;;;4.80;3.50;;;;;;;;;;4917513;29;20463;-80
2023/01/29 04:54:53;;;;;;;4.70;3.33;;;;;;;;;;4901956;29;20070;-79
2023/01/29 05:11:09;;;;;;;2.15;2.05;;;;;;;;;;5555867;23;20090;-79
2023/01/29 05:13:37;;;;;;;2.22;2.13;;;;;;;;;;4918311;29;20059;-79
2023/01/29 05:16:13;;;;;;;2.10;2.00;;;;;;;;;;4901416;29;20068;-78
2023/01/29 05:18:39;;;;;;;2.22;2.13;;;;;;;;;;4917296;29;20536;-78
2023/01/29 05:21:06;;;;;;;2.42;2.25;;;;;;;;;;4917761;29;20032;-78
2023/01/29 05:23:31;;;;;;;2.33;2.22;;;;;;;;;;4920761;29;20043;-80
2023/01/29 05:26:08;;;;;;;2.45;2.25;;;;;;;;;;4919092;29;20396;-80
2023/01/29 05:28:33;;;;;;;2.55;2.30;;;;;;;;;;4919246;29;20035;-78
2023/01/29 05:31:03;;;;;;;2.53;2.38;;;;;;;;;;4918063;29;20025;-78
2023/01/29 05:33:29;;;;;;;2.33;2.20;;;;;;;;;;4916923;29;20024;-78
2023/01/29 05:35:55;;;;;;;2.83;2.67;;;;;;;;;;4900718;29;20020;-78
2023/01/29 05:38:21;;;;;;;2.75;2.55;;;;;;;;;;4900711;29;20036;-77
2023/01/29 05:40:48;;;;;;;2.78;2.58;;;;;;;;;;4916769;29;20564;-78
2023/01/29 05:43:13;;;;;;;2.28;2.17;;;;;;;;;;4911590;23;20651;-75
2023/01/29 05:45:38;;;;;;;2.47;2.28;;;;;;;;;;4922413;29;20035;-76
2023/01/29 05:48:05;;;;;;;2.40;2.30;;;;;;;;;;4940145;29;20028;-75
2023/01/29 05:50:30;;;;;;;2.30;2.20;;;;;;;;;;4940136;29;20441;-75
2023/01/29 05:52:57;;;;;;;2.80;2.58;;;;;;;;;;4923109;29;20388;-75
2023/01/29 05:55:22;;;;;;;3.13;2.80;;;;;;;;;;4948291;23;20066;-74
2023/01/29 05:57:48;;;;;;;4.07;2.50;;;;;;;;;;4940120;29;20443;-77
2023/01/29 06:00:15;;;;;;;2.72;2.50;;;;;;;;;;4940332;29;20584;-77
2023/01/29 06:02:41;;;;;;;3.30;2.42;;;;;;;;;;4940462;29;20507;-77
2023/01/29 06:05:07;;;;;;;2.45;2.25;;;;;;;;;;4940377;29;20040;-78
2023/01/29 06:07:33;;;;;;;4.70;2.97;;;;;;;;;;4922828;29;20388;-77
2023/01/29 06:09:58;;;;;;;2.97;2.78;;;;;;;;;;4922700;29;20031;-76
2023/01/29 06:12:23;;;;;;;2.90;2.70;;;;;;;;;;4922976;29;20102;-78
2023/01/29 06:14:49;;;;;;;2.63;2.42;;;;;;;;;;4940027;29;20043;-77
2023/01/29 06:17:15;;;;;;;3.47;3.17;;;;;;;;;;4939721;29;20030;-76
2023/01/29 06:19:40;;;;;;;3.47;3.17;;;;;;;;;;4939301;29;20027;-76
2023/01/29 06:22:05;;;;;;;3.42;3.10;;;;;;;;;;4922128;29;20031;-76
2023/01/29 06:24:31;;;;;;;3.83;2.90;;;;;;;;;;4905296;29;20036;-76
2023/01/29 06:26:57;;;;;;;3.28;2.70;;;;;;;;;;4938771;29;20042;-76
2023/01/29 06:29:23;;;;;;;3.28;2.97;;;;;;;;;;4939506;29;20027;-77
2023/01/29 06:31:48;;;;;;;2.90;2.70;;;;;;;;;;4938582;29;20085;-78
2023/01/29 06:34:15;;;;;;;3.10;2.80;;;;;;;;;;4922434;29;20416;-79
2023/01/29 06:36:41;;;;;;;2.20;2.10;;;;;;;;;;4906733;29;20066;-78
2023/01/29 06:39:06;;;;;;;2.15;2.05;;;;;;;;;;4939312;29;20038;-78
2023/01/29 06:41:31;;;;;;;2.05;1.95;;;;;;;;;;4939222;29;20453;-79
2023/01/29 06:43:57;;;;;;;2.40;2.20;;;;;;;;;;4906722;29;20035;-76
2023/01/29 06:46:22;;;;;;;2.30;2.10;;;;;;;;;;4939310;29;20484;-76
2023/01/29 06:48:47;;;;;;;2.40;2.15;;;;;;;;;;4939074;29;20035;-76
2023/01/29 06:51:13;;;;;;;3.00;2.33;;;;;;;;;;4922196;29;20050;-76
2023/01/29 06:53:39;;;;;;;2.92;2.70;;;;;;;;;;4938895;29;20016;-76
2023/01/29 06:56:06;;;;;;;3.67;3.38;;;;;;;;;;4921390;29;20043;-78
2023/01/29 06:58:31;;;;;;;4.20;3.80;;;;;;;;;;4938211;29;20051;-73
2023/01/29 07:01:04;;;;;;;4.85;4.28;;;;;;;;;;4938580;29;20499;-73
2023/01/29 07:03:29;;;;;;;5.38;4.28;;;;;;;;;;4921404;29;20039;-73
2023/01/29 07:05:54;;;;;;;5.40;4.40;;;;;;;;;;4921189;29;20039;-73
2023/01/29 07:08:21;;;;;;;4.47;4.03;;;;;;;;;;4941899;29;20475;-77
2023/01/29 07:10:48;;;;;;;4.95;4.25;;;;;;;;;;4926019;29;20511;-78
2023/01/29 07:13:13;;;;;;;5.78;4.40;;;;;;;;;;4942434;29;20559;-78
2023/01/29 07:15:41;;;;;;;6.78;4.78;;;;;;;;;;4924480;29;20035;-78
2023/01/29 07:18:11;;;;;;;3.95;3.58;;;;;;;;;;4942168;29;20436;-78
2023/01/29 07:20:38;;;;;;;4.93;4.13;;;;;;;;;;4924467;29;20038;-71
2023/01/29 07:23:03;;;;;;;4.43;4.03;;;;;;;;;;4940769;29;20119;-77
2023/01/29 07:25:30;;;;;;;5.63;3.75;;;;;;;;;;4923224;29;20111;-79
2023/01/29 07:27:55;;;;;;;5.13;4.63;;;;;;;;;;4940459;29;20032;-78
2023/01/29 07:30:21;;;;;;;5.72;4.55;;;;;;;;;;4941093;29;20036;-78
2023/01/29 07:32:47;;;;;;;4.50;4.03;;;;;;;;;;4923537;29;20028;-78
2023/01/29 07:35:12;;;;;;;6.05;4.50;;;;;;;;;;4923689;29;20396;-78
2023/01/29 07:37:40;;;;;;;4.30;3.90;;;;;;;;;;4940388;29;20047;-78
2023/01/29 07:40:10;;;;;;;5.05;4.53;;;;;;;;;;4940133;29;20063;-78
2023/01/29 07:42:40;;;;;;;7.53;4.07;;;;;;;;;;4923447;29;20114;-78
2023/01/29 07:45:06;;;;;;;4.95;4.50;;;;;;;;;;4922098;29;20044;-75
2023/01/29 07:47:33;;;;;;;5.30;4.22;;;;;;;;;;4939117;29;20046;-79
2023/01/29 07:49:58;;;;;;;4.97;4.35;;;;;;;;;;4941393;29;20028;-79
2023/01/29 07:52:24;;;;;;;4.55;4.10;;;;;;;;;;4939809;29;20032;-78
2023/01/29 07:54:52;;;;;;;4.70;4.28;;;;;;;;;;4922468;29;20388;-78
2023/01/29 07:57:18;;;;;;;6.65;3.85;;;;;;;;;;4922826;29;20035;-79
2023/01/29 07:59:49;;;;;;;6.07;4.75;;;;;;;;;;4939118;29;20411;-78
2023/01/29 08:02:15;;;;;;;6.63;5.13;;;;;;;;;;4939234;29;20028;-79
2023/01/29 08:04:40;;;;;;;6.50;5.60;;;;;;;;;;4907141;29;20051;-79
2023/01/29 08:07:05;;;;;;;6.25;5.07;;;;;;;;;;4921499;29;20040;-79
2023/01/29 08:09:33;;;;;;;7.80;6.18;;;;;;;;;;4922342;29;20068;-79
2023/01/29 08:11:58;;;;;;;9.00;6.40;;;;;;;;;;4922334;29;20492;-78
2023/01/29 08:14:23;;;;;;;6.10;5.50;;;;;;;;;;4920799;29;20032;-63
2023/01/29 08:16:49;;;;;;;7.80;5.57;;;;;;;;;;4937534;29;20039;-63
2023/01/29 08:19:14;;;;;;;10.55;7.20;;;;;;;;;;4937670;29;20119;-62
2023/01/29 08:21:39;;;;;;;9.13;6.40;;;;;;;;;;4937966;29;20032;-69
2023/01/29 08:24:11;;;;;;;9.85;6.50;;;;;;;;;;4937411;29;20425;-69
2023/01/29 08:26:36;;;;;;;6.30;5.70;;;;;;;;;;4937262;29;20042;-71
2023/01/29 08:29:01;;;;;;;5.93;5.28;;;;;;;;;;4937656;29;20027;-71
2023/01/29 08:31:47;;;;;;;8.23;6.25;;;;;;;;;;4942731;23;20036;-74
2023/01/29 08:34:13;;;;;;;6.57;5.60;;;;;;;;;;4896760;29;20076;-74
2023/01/29 08:36:40;;;;;;;9.23;6.18;;;;;;;;;;4899380;29;20477;-71
2023/01/29 08:39:15;;;;;;;6.82;5.57;;;;;;;;;;4899424;29;20028;-71
2023/01/29 08:41:40;;;;;;;8.57;6.47;;;;;;;;;;4881024;29;20043;-70
2023/01/29 08:44:06;;;;;;;9.93;6.45;;;;;;;;;;4863790;29;20466;-70
2023/01/29 08:46:31;;;;;;;8.35;5.88;;;;;;;;;;4880614;29;20045;-70
2023/01/29 08:48:59;;;;;;;6.80;5.38;;;;;;;;;;4880332;29;20028;-70
2023/01/29 08:51:25;;;;;;;6.50;5.57;;;;;;;;;;4881124;29;20037;-70
2023/01/29 08:53:51;;;;;;;8.25;5.85;;;;;;;;;;4880678;29;20116;-69
2023/01/29 08:56:16;;;;;;;8.35;6.55;;;;;;;;;;4879433;29;20124;-72
2023/01/29 08:58:44;;;;;;;6.38;5.65;;;;;;;;;;4880794;29;20049;-73
2023/01/29 09:01:11;;;;;;;5.28;4.78;;;;;;;;;;4879389;29;20033;-72
2023/01/29 09:03:39;;;;;;;5.40;4.90;;;;;;;;;;4878795;29;20497;-72
2023/01/29 09:06:05;;;;;;;6.25;5.57;;;;;;;;;;4879986;29;20032;-72
2023/01/29 09:08:32;;;;;;;5.72;5.13;;;;;;;;;;4880481;29;20040;-72
2023/01/29 09:10:58;;;;;;;8.43;6.50;;;;;;;;;;4863520;29;20081;-72
2023/01/29 09:13:24;;;;;;;9.38;6.95;;;;;;;;;;4880147;29;20446;-72
2023/01/29 09:15:49;;;;;;;12.00;8.60;;;;;;;;;;4880103;29;20029;-72
2023/01/29 09:18:15;;;;;;;11.68;7.50;;;;;;;;;;4880421;29;20025;-72
2023/01/29 09:20:41;;;;;;;18.10;9.32;;;;;;;;;;4881855;29;20092;-72
2023/01/29 09:23:07;;;;;;;7.63;5.03;;;;;;;;;;4898986;29;20025;-72
2023/01/29 09:25:32;;;;;;;8.75;6.00;;;;;;;;;;4883011;29;20446;-73
2023/01/29 09:27:58;;;;;;;5.32;4.60;;;;;;;;;;4884450;29;20068;-73
2023/01/29 09:30:23;;;;;;;4.82;4.03;;;;;;;;;;4900918;29;20017;-72
2023/01/29 09:32:56;;;;;;;6.03;4.80;;;;;;;;;;4898893;29;20406;-72
2023/01/29 09:35:22;;;;;;;6.13;4.20;;;;;;;;;;4899060;29;20044;-72
2023/01/29 09:37:49;;;;;;;5.03;4.07;;;;;;;;;;4898920;29;20045;-72
2023/01/29 09:40:28;;;;;;;4.60;3.65;;;;;;;;;;4899422;29;20036;-72
2023/01/29 09:43:06;;;;;;;5.28;3.65;;;;;;;;;;4882132;29;20040;-72
2023/01/29 09:45:32;;;;;;;4.22;3.55;;;;;;;;;;4882434;29;20240;-72
2023/01/29 09:48:00;;;;;;;5.60;3.70;;;;;;;;;;4898836;29;20385;-73
2023/01/29 09:50:40;;;;;;;4.53;4.07;;;;;;;;;;4898790;29;20032;-72
2023/01/29 09:53:05;;;;;;;4.00;3.53;;;;;;;;;;4898808;29;20453;-72
2023/01/29 09:55:52;;;;;;;5.03;4.00;;;;;;;;;;4898863;29;20031;-72
2023/01/29 09:58:21;;;;;;;4.60;3.47;;;;;;;;;;4898147;29;20053;-72
2023/01/29 10:00:53;;;;;;;5.90;3.60;;;;;;;;;;4881618;29;20024;-72
2023/01/29 10:03:35;;;;;;;6.63;4.00;;;;;;;;;;4882018;29;20115;-73
2023/01/29 10:06:06;;;;;;;5.20;4.10;;;;;;;;;;4898944;29;20075;-72
2023/01/29 10:08:45;;;;;;;6.18;3.97;;;;;;;;;;4898245;29;20032;-72
2023/01/29 10:11:19;;;;;;;5.50;4.15;;;;;;;;;;4898294;29;20096;-72
2023/01/29 10:13:54;;;;;;;4.57;4.10;;;;;;;;;;4898329;29;20025;-72
2023/01/29 10:16:19;;;;;;;7.40;4.60;;;;;;;;;;4881810;29;20041;-72
2023/01/29 10:18:57;;;;;;;12.27;5.72;;;;;;;;;;4898571;29;20032;-72
2023/01/29 10:21:31;;;;;;;4.70;4.07;;;;;;;;;;4898392;29;20047;-72
2023/01/29 10:24:12;;;;;;;5.22;3.83;;;;;;;;;;4898357;29;20473;-72
2023/01/29 10:26:39;;;;;;;3.67;3.38;;;;;;;;;;4881810;29;20029;-72
2023/01/29 10:29:06;;;;;;;5.45;3.97;;;;;;;;;;4881332;29;20028;-72
2023/01/29 10:31:37;;;;;;;6.50;4.68;;;;;;;;;;4901771;29;20335;-72
2023/01/29 10:34:09;;;;;;;4.82;4.13;;;;;;;;;;4901880;29;20048;-72
2023/01/29 10:36:37;;;;;;;4.60;3.95;;;;;;;;;;4884666;29;20033;-72
2023/01/29 10:39:04;;;;;;;6.78;5.35;;;;;;;;;;4901220;29;20037;-72
2023/01/29 10:41:39;;;;;;;6.53;5.40;;;;;;;;;;4901439;29;20489;-72
2023/01/29 10:44:05;;;;;;;7.40;5.13;;;;;;;;;;4884776;29;20557;-72
2023/01/29 10:46:30;;;;;;;6.10;4.05;;;;;;;;;;4901814;29;20036;-70
2023/01/29 10:49:01;;;;;;;5.10;4.20;;;;;;;;;;4901634;29;20100;-69
2023/01/29 10:51:55;;;;;;;5.70;5.13;;;;;;;;;;4901089;29;20024;-69
2023/01/29 10:54:35;;;;;;;6.78;5.13;;;;;;;;;;4884722;29;20393;-69
2023/01/29 10:57:01;;;;;;;6.57;4.88;;;;;;;;;;4901574;29;20123;-72
2023/01/29 10:59:50;;;;;;;7.57;6.03;;;;;;;;;;4930885;23;20136;-72
2023/01/29 11:02:18;;;;;;;6.93;5.20;;;;;;;;;;4875911;29;20161;-72
2023/01/29 11:04:45;;;;;;;5.10;4.13;;;;;;;;;;4900795;29;20036;-72
2023/01/29 11:07:11;;;;;;;7.15;5.70;;;;;;;;;;4866998;29;20440;-72
2023/01/29 11:09:41;;;;;;;4.68;4.28;;;;;;;;;;4882780;29;20033;-72
2023/01/29 11:12:09;;;;;;;11.93;7.55;;;;;;;;;;4882414;29;20417;-72
2023/01/29 11:14:38;;;;;;;9.57;6.55;;;;;;;;;;4882203;29;20029;-72
2023/01/29 11:17:03;;;;;;;6.28;5.57;;;;;;;;;;4882475;29;20399;-72
2023/01/29 11:19:37;;;;;;;5.00;4.50;;;;;;;;;;4883047;29;20096;-72
2023/01/29 11:22:03;;;;;;;10.02;6.35;;;;;;;;;;4884413;29;20037;-71
2023/01/29 11:24:28;;;;;;;9.02;7.10;;;;;;;;;;4900829;29;20036;-71
2023/01/29 11:27:00;;;;;;;13.95;9.35;;;;;;;;;;4900631;29;20072;-72
2023/01/29 11:29:29;;;;;;;16.90;11.05;;;;;;;;;;4883629;29;20034;-72
2023/01/29 11:31:55;;;;;;;14.18;9.15;;;;;;;;;;4902781;29;20099;-72
2023/01/29 11:34:21;;;;;;;16.63;10.65;;;;;;;;;;4903871;29;20121;-72
2023/01/29 11:36:55;;;;;;;19.48;11.70;;;;;;;;;;4886181;29;20037;-72
2023/01/29 11:39:21;;;;;;;21.05;13.00;;;;;;;;;;4900928;29;20123;-72
2023/01/29 11:41:57;;;;;;;21.48;12.50;;;;;;;;;;4899559;29;20036;-72
2023/01/29 11:44:33;;;;;;;21.75;13.25;;;;;;;;;;4900442;29;20385;-72
2023/01/29 11:47:09;;;;;;;23.08;13.90;;;;;;;;;;4884272;29;20036;-72
2023/01/29 11:49:35;;;;;;;30.10;16.92;;;;;;;;;;4900487;29;20029;-69
2023/01/29 11:52:07;;;;;;;20.35;10.93;;;;;;;;;;4883570;29;20119;-68
2023/01/29 11:54:35;;;;;;;17.58;11.95;;;;;;;;;;4876872;29;20032;-68
2023/01/29 11:57:02;;;;;;;19.38;12.05;;;;;;;;;;4881681;29;20099;-68
2023/01/29 11:59:48;;;;;;;36.28;20.63;;;;;;;;;;4881209;29;20505;-69
2023/01/29 12:02:34;;;;;;;23.85;14.57;;;;;;;;;;4880736;29;20045;-68
2023/01/29 12:05:04;;;;;;;25.05;14.45;;;;;;;;;;4881467;29;20029;-69
2023/01/29 12:07:30;;;;;;;25.35;14.40;;;;;;;;;;4864882;29;20041;-69
2023/01/29 12:09:57;;;;;;;25.83;14.82;;;;;;;;;;4881356;29;20025;-69
2023/01/29 12:12:30;;;;;;;28.85;15.80;;;;;;;;;;4849455;29;20055;-69
2023/01/29 12:15:03;;;;;;;32.90;18.27;;;;;;;;;;4864637;29;20029;-69
2023/01/29 12:17:30;;;;;;;30.60;16.95;;;;;;;;;;4881077;29;20045;-68
2023/01/29 12:20:00;;;;;;;22.92;12.45;;;;;;;;;;4881428;29;20116;-69
2023/01/29 12:22:26;;;;;;;;;;;;;;;;;;4881729;29;20025;-69
2023/01/29 12:24:55;;;;;;;30.57;18.33;;;;;;;;;;4880667;29;20368;-68
2023/01/29 12:27:43;;;;;;;22.83;11.73;;;;;;;;;;4863876;29;20370;-69
2023/01/29 12:30:27;;;;;;;20.42;12.27;;;;;;;;;;4868249;29;20078;-69
2023/01/29 12:33:02;;;;;;;22.90;13.65;;;;;;;;;;4864263;29;20033;-69
2023/01/29 12:35:29;;;;;;;24.25;14.45;;;;;;;;;;4864403;29;20444;-69
2023/01/29 12:38:27;;;;;;;17.42;11.30;;;;;;;;;;4881190;29;20044;-69
2023/01/29 12:40:58;;;;;;;21.42;12.00;;;;;;;;;;4814371;29;20091;-72
2023/01/29 12:43:42;;;;;;;16.70;10.60;;;;;;;;;;4880836;29;20389;-72
2023/01/29 12:46:12;;;;;;;19.30;11.88;;;;;;;;;;4864014;29;20033;-72
2023/01/29 12:48:45;;;;;;;16.85;10.25;;;;;;;;;;4880464;29;20080;-72
2023/01/29 12:51:16;;;;;;;20.63;13.27;;;;;;;;;;4880688;29;20044;-72
2023/01/29 12:53:45;;;;;;;23.80;13.63;;;;;;;;;;4880333;29;20036;-72
2023/01/29 12:56:24;;;;;;;23.52;13.65;;;;;;;;;;4882658;29;20442;-72
2023/01/29 12:58:51;;;;;;;14.50;9.27;;;;;;;;;;4899171;29;20470;-72
2023/01/29 13:01:33;;;;;;;11.90;8.10;;;;;;;;;;4878760;29;20041;-72
2023/01/29 13:04:08;;;;;;;12.77;8.27;;;;;;;;;;4880609;29;20477;-69
2023/01/29 13:06:45;;;;;;;14.10;9.43;;;;;;;;;;4880320;29;20033;-69
2023/01/29 13:09:13;;;;;;;15.40;10.43;;;;;;;;;;4880118;29;20040;-72
2023/01/29 13:12:06;;;;;;;15.48;10.10;;;;;;;;;;4880667;29;20057;-72
2023/01/29 13:14:39;;;;;;;12.85;9.10;;;;;;;;;;4877941;29;20049;-72
2023/01/29 13:17:08;;;;;;;12.98;9.38;;;;;;;;;;4880367;29;20037;-69
2023/01/29 13:19:44;;;;;;;13.85;9.25;;;;;;;;;;4879281;29;20490;-69
2023/01/29 13:22:23;;;;;;;14.00;9.52;;;;;;;;;;4880195;29;20040;-68
2023/01/29 13:24:49;;;;;;;14.97;10.63;;;;;;;;;;4863746;29;20039;-69
2023/01/29 13:29:47;;;;;;;14.20;10.02;;;;;;;;;;4894587;29;20045;-68
2023/01/29 13:32:18;;;;;;;20.95;12.63;;;;;;;;;;4898686;29;20060;-68
2023/01/29 13:34:45;;;;;;;22.90;15.02;;;;;;;;;;4888447;29;20037;-68
2023/01/29 13:37:15;;;;;;;25.98;16.05;;;;;;;;;;4863595;29;20041;-68
2023/01/29 13:39:51;;;;;;;26.70;14.40;;;;;;;;;;4879829;29;20119;-68
2023/01/29 13:42:22;;;;;;;29.23;18.42;;;;;;;;;;4863252;29;20033;-68
2023/01/29 13:44:49;;;;;;;29.58;18.50;;;;;;;;;;4880105;29;20040;-68
2023/01/29 13:47:29;;;;;;;21.13;14.18;;;;;;;;;;4892394;29;20163;-68
2023/01/29 13:49:55;;;;;;;22.20;14.52;;;;;;;;;;4899076;29;20133;-68
2023/01/29 13:52:32;;;;;;;30.90;19.15;;;;;;;;;;4883633;29;20036;-68
2023/01/29 13:55:01;;;;;;;23.90;16.13;;;;;;;;;;4899786;29;20176;-68
2023/01/29 13:57:34;;;;;;;25.27;15.90;;;;;;;;;;4898316;29;20557;-68
2023/01/29 14:00:01;;;;;;;24.88;15.65;;;;;;;;;;4898482;29;20037;-68
2023/01/29 14:02:27;;;;;;;29.38;18.40;;;;;;;;;;4898792;29;20036;-68
2023/01/29 14:05:13;;;;;;;18.63;12.65;;;;;;;;;;4899312;29;20033;-68
2023/01/29 14:07:45;;;;;;;14.30;11.30;;;;;;;;;;4901758;29;20136;-68
2023/01/29 14:10:20;;;;;;;17.90;13.00;;;;;;;;;;4902189;29;20032;-68
2023/01/29 14:12:47;;;;;;;16.67;12.10;;;;;;;;;;4902336;29;20028;-71
2023/01/29 14:15:16;;;;;;;15.50;11.88;;;;;;;;;;4884788;29;20029;-71
2023/01/29 14:18:00;;;;;;;15.35;11.00;;;;;;;;;;4901954;29;20033;-71
2023/01/29 14:20:30;;;;;;;15.88;11.52;;;;;;;;;;4901676;29;20474;-71
2023/01/29 14:22:58;;;;;;;15.70;11.35;;;;;;;;;;4878834;29;20401;-71
2023/01/29 14:25:28;;;;;;;16.23;10.85;;;;;;;;;;4883356;29;20037;-71
2023/01/29 14:27:58;;;;;;;12.50;9.20;;;;;;;;;;4882764;29;20072;-71
2023/01/29 14:30:24;;;;;;;16.30;10.53;;;;;;;;;;4883020;29;20477;-71
2023/01/29 14:32:50;;;;;;;11.90;8.77;;;;;;;;;;4866210;29;20112;-71
2023/01/29 14:35:19;;;;;;;12.95;8.95;;;;;;;;;;4882812;29;20025;-71
2023/01/29 14:37:49;;;;;;;12.90;8.80;;;;;;;;;;4866272;29;20040;-71
2023/01/29 14:40:17;;;;;;;11.25;8.98;;;;;;;;;;4882550;29;20041;-71
2023/01/29 14:43:06;;;;;;;11.93;9.05;;;;;;;;;;4865863;29;20029;-71
2023/01/29 14:45:40;;;;;;;15.05;11.63;;;;;;;;;;4866062;29;20133;-71
2023/01/29 14:48:09;;;;;;;13.60;9.50;;;;;;;;;;4877592;29;20044;-68
2023/01/29 14:50:38;;;;;;;14.48;9.43;;;;;;;;;;4900767;29;20012;-68
2023/01/29 14:53:42;;;;;;;13.60;9.45;;;;;;;;;;4899712;29;20482;-68
2023/01/29 14:56:19;;;;;;;16.40;9.80;;;;;;;;;;4826643;29;20048;-67
2023/01/29 14:58:45;;;;;;;13.23;8.55;;;;;;;;;;4842233;29;20038;-68
2023/01/29 15:01:16;;;;;;;11.23;8.75;;;;;;;;;;4866090;29;20089;-68
2023/01/29 15:03:45;;;;;;;14.27;8.90;;;;;;;;;;4900481;29;20410;-68
2023/01/29 15:06:15;;;;;;;12.48;8.88;;;;;;;;;;4900431;29;20032;-68
2023/01/29 15:09:01;;;;;;;15.75;9.65;;;;;;;;;;4900145;29;20138;-68
2023/01/29 15:11:42;;;;;;;13.45;9.20;;;;;;;;;;4867568;29;20119;-71
2023/01/29 15:14:12;;;;;;;12.52;8.02;;;;;;;;;;4884015;29;20036;-71
2023/01/29 15:16:43;;;;;;;13.38;8.57;;;;;;;;;;4883078;29;20056;-72
2023/01/29 15:19:19;;;;;;;14.63;8.48;;;;;;;;;;4883568;29;20092;-68
2023/01/29 15:22:03;;;;;;;13.82;9.65;;;;;;;;;;4900045;29;20033;-68
2023/01/29 15:24:30;;;;;;;21.67;13.05;;;;;;;;;;4865640;29;20039;-71
2023/01/29 15:26:55;;;;;;;18.90;11.27;;;;;;;;;;4881998;29;20045;-71
2023/01/29 15:29:23;;;;;;;21.20;12.90;;;;;;;;;;4881694;29;20052;-71
2023/01/29 15:31:48;;;;;;;18.95;11.55;;;;;;;;;;4875748;29;20119;-72
2023/01/29 15:34:13;;;;;;;15.90;10.20;;;;;;;;;;4879858;29;20451;-70
2023/01/29 15:36:39;;;;;;;13.02;8.68;;;;;;;;;;4861794;29;20097;-70
2023/01/29 15:39:12;;;;;;;20.35;12.82;;;;;;;;;;4873881;29;20041;-69
2023/01/29 15:41:39;;;;;;;19.45;11.85;;;;;;;;;;4880974;29;20127;-67
2023/01/29 15:44:15;;;;;;;15.70;11.13;;;;;;;;;;4898959;29;20118;-67
2023/01/29 15:46:41;;;;;;;19.13;12.57;;;;;;;;;;4915706;29;20040;-69
2023/01/29 15:49:08;;;;;;;21.73;13.02;;;;;;;;;;4915583;29;20032;-67
2023/01/29 15:51:34;;;;;;;15.60;9.35;;;;;;;;;;4915287;29;20063;-67
2023/01/29 15:54:01;;;;;;;14.20;9.68;;;;;;;;;;4898264;29;20075;-66
2023/01/29 15:56:28;;;;;;;20.58;12.50;;;;;;;;;;4915754;29;20123;-66